Spirit Lake, Iowa
Current Conditions -  °F | °C
As of 10:34 AM on Friday 31 Oct 2014 (Local Time) from KMJQ Reporting Station
Clear Clear  
Wind Chill: 24°   Ceiling: Unl
Heat Index: 32°   Visibility: 10mi
Dew Point: 19°   Wind: 9mph
Humidity: 60%   Direction: 350°N
Pressure: 30.56"   Gusts: 16mph
Location:  43.42°N, 95.1°W
Report Text: KMJQ 311534Z AUTO 35008G14KT 10SM CLR 00/M07 A3056 RMK AO2
Loading
Personal Weather Stations






























Interactive Weather Map
Tropical Storm Tracking
New forecast layout! Learn more

10-Day Weather Forecast

Advertisements
Track Severe Weather on mobile